Archiv-/Tagesdaten

--Timestamp---	Temp	Chill	HIndex	Humid	Dewpt	Wind	HiWind	WindDir	Rain	Barom	        Solar	ET	UV
--------------	----	-----	------	-----	-----	----	------	-------	----	-----	        -----	--	--
20081222 00:05	5.8	4.1	5.8	89	4.2	8	24	247	0.00	1032.885	0	0.000	0
20081222 00:10	5.8	3.7	5.8	89	4.2	10	24	247	0.00	1032.784	0	0.000	0
20081222 00:15	5.8	4.1	5.8	89	4.2	8	18	247	0.00	1032.682	0	0.000	0
20081222 00:20	5.8	3.7	5.8	88	4.0	10	23	247	0.00	1032.953	0	0.000	0
20081222 00:25	5.8	4.1	5.8	88	4.0	8	18	247	0.00	1032.818	0	0.000	0
20081222 00:30	5.8	4.1	5.8	88	3.9	8	19	247	0.00	1032.784	0	0.000	0
20081222 00:35	5.8	4.1	5.8	88	3.9	8	21	247	0.00	1033.055	0	0.000	0
20081222 00:40	5.8	4.1	5.8	88	3.9	8	16	247	0.00	1032.919	0	0.000	0
20081222 00:45	5.7	4.4	5.7	88	3.9	6	14	247	0.00	1032.953	0	0.000	0
20081222 00:50	5.7	4.4	5.7	88	3.8	6	14	247	0.00	1033.021	0	0.000	0
20081222 00:55	5.7	4.4	5.7	88	3.8	6	18	247	0.00	1032.885	0	0.000	0
20081222 01:00	5.7	3.5	5.7	88	3.8	10	21	247	0.00	1032.919	0	0.020	0
20081222 01:05	5.7	3.5	5.7	88	3.8	10	19	247	0.00	1032.750	0	0.000	0
20081222 01:10	5.6	3.9	5.6	88	3.8	8	18	270	0.00	1032.716	0	0.000	0
20081222 01:15	5.6	3.9	5.6	89	3.9	8	16	247	0.00	1032.851	0	0.000	0
20081222 01:20	5.6	4.2	5.6	89	3.9	6	16	247	0.00	1032.953	0	0.000	0
20081222 01:25	5.6	3.5	5.6	89	3.9	10	21	247	0.00	1032.919	0	0.000	0
20081222 01:30	5.6	3.5	5.6	89	3.9	10	21	247	0.00	1032.987	0	0.000	0
20081222 01:35	5.7	3.5	5.7	88	3.8	10	23	247	0.00	1032.953	0	0.000	0
20081222 01:40	5.7	3.5	5.7	88	3.8	10	19	247	0.00	1032.818	0	0.000	0
20081222 01:45	5.6	3.9	5.6	88	3.8	8	14	247	0.00	1032.818	0	0.000	0
20081222 01:50	5.6	3.4	5.6	88	3.7	10	19	270	0.00	1032.784	0	0.000	0
20081222 01:55	5.6	3.8	5.6	88	3.7	8	19	247	0.00	1032.818	0	0.000	0
20081222 02:00	5.6	3.4	5.6	88	3.7	10	21	247	0.00	1032.784	0	0.020	0
20081222 02:05	5.6	3.5	5.6	88	3.8	10	18	247	0.00	1032.750	0	0.000	0
20081222 02:10	5.6	3.8	5.6	88	3.7	8	16	247	0.00	1032.682	0	0.000	0
20081222 02:15	5.5	4.2	5.5	88	3.7	6	14	247	0.00	1032.716	0	0.000	0
20081222 02:20	5.4	3.7	5.4	88	3.6	8	18	247	0.00	1032.716	0	0.000	0
20081222 02:25	5.4	3.7	5.4	88	3.6	8	16	247	0.00	1032.750	0	0.000	0
20081222 02:30	5.4	4.1	5.4	88	3.6	6	13	247	0.00	1032.716	0	0.000	0
20081222 02:35	5.4	3.6	5.4	88	3.6	8	18	270	0.00	1032.682	0	0.000	0
20081222 02:40	5.4	3.6	5.4	88	3.6	8	18	247	0.00	1032.648	0	0.000	0
20081222 02:45	5.4	3.7	5.4	92	4.2	8	21	247	0.00	1032.614	0	0.000	0
20081222 02:50	5.4	2.9	5.4	86	3.3	11	19	247	0.00	1032.682	0	0.000	0
20081222 02:55	5.4	3.3	5.4	86	3.3	10	23	247	0.00	1032.716	0	0.000	0
20081222 03:00	5.5	3.0	5.5	86	3.3	11	24	247	0.00	1032.648	0	0.020	0
20081222 03:05	5.5	3.3	5.5	87	3.5	10	27	247	0.00	1032.648	0	0.000	0
20081222 03:10	5.5	3.3	5.5	87	3.5	10	19	247	0.00	1032.614	0	0.000	0
20081222 03:15	5.4	3.7	5.4	87	3.5	8	21	247	0.00	1032.513	0	0.000	0
20081222 03:20	5.4	3.3	5.4	87	3.5	10	19	247	0.00	1032.513	0	0.000	0
20081222 03:25	5.4	3.3	5.4	87	3.5	10	18	247	0.00	1032.513	0	0.000	0
20081222 03:30	5.5	3.3	5.5	86	3.3	10	18	247	0.00	1032.479	0	0.000	0
20081222 03:35	5.5	3.7	5.5	86	3.3	8	18	247	0.00	1032.445	0	0.000	0
20081222 03:40	5.5	3.7	5.5	86	3.3	8	21	247	0.00	1032.513	0	0.000	0
20081222 03:45	5.5	3.7	5.5	86	3.3	8	18	247	0.00	1032.445	0	0.000	0
20081222 03:50	5.5	3.3	5.5	87	3.5	10	24	247	0.00	1032.411	0	0.000	0
20081222 03:55	5.5	3.7	5.5	86	3.3	8	18	247	0.00	1032.377	0	0.000	0
20081222 04:00	5.5	3.7	5.5	86	3.3	8	19	247	0.00	1032.242	0	0.020	0
20081222 04:05	5.5	3.3	5.5	85	3.2	10	19	270	0.00	1032.445	0	0.000	0
20081222 04:10	5.6	3.4	5.6	85	3.2	10	27	247	0.00	1032.411	0	0.000	0
20081222 04:15	5.6	3.1	5.6	84	3.1	11	24	247	0.00	1032.411	0	0.000	0
20081222 04:20	5.6	3.4	5.6	85	3.2	10	21	247	0.00	1032.411	0	0.000	0
20081222 04:25	5.6	3.1	5.6	85	3.2	11	29	247	0.00	1032.445	0	0.000	0
20081222 04:30	5.5	3.3	5.5	85	3.2	10	23	247	0.00	1032.479	0	0.000	0
20081222 04:35	5.5	3.7	5.5	85	3.2	8	19	247	0.00	1032.445	0	0.000	0
20081222 04:40	5.4	3.7	5.4	85	3.1	8	23	270	0.00	1032.445	0	0.000	0
20081222 04:45	5.4	4.0	5.4	86	3.2	6	14	247	0.00	1032.513	0	0.000	0
20081222 04:50	5.4	3.6	5.4	85	3.1	8	16	270	0.00	1032.513	0	0.000	0
20081222 04:55	5.3	3.1	5.3	85	3.0	10	23	247	0.00	1032.513	0	0.000	0
20081222 05:00	5.3	4.0	5.3	85	3.0	6	16	270	0.00	1032.547	0	0.020	0
20081222 05:05	5.3	3.9	5.3	85	3.0	6	16	247	0.00	1032.547	0	0.000	0
20081222 05:10	5.2	3.9	5.2	86	3.1	6	14	270	0.00	1032.513	0	0.000	0
20081222 05:15	5.2	3.9	5.2	86	3.1	6	16	247	0.00	1032.445	0	0.000	0
20081222 05:20	5.2	3.4	5.2	85	2.9	8	19	247	0.00	1032.513	0	0.000	0
20081222 05:25	5.2	3.4	5.2	85	2.9	8	18	247	0.00	1032.445	0	0.000	0
20081222 05:30	5.2	3.4	5.2	86	3.1	8	14	247	0.00	1032.479	0	0.000	0
20081222 05:35	5.2	3.8	5.2	86	3.0	6	16	270	0.00	1032.513	0	0.000	0
20081222 05:40	5.2	3.4	5.2	85	2.9	8	19	270	0.00	1032.648	0	0.000	0
20081222 05:45	5.2	3.4	5.2	85	2.9	8	16	247	0.00	1032.716	0	0.000	0
20081222 05:50	5.3	3.5	5.3	85	3.0	8	19	247	0.00	1032.784	0	0.000	0
20081222 05:55	5.3	3.5	5.3	85	3.0	8	16	247	0.00	1032.750	0	0.000	0
20081222 06:00	5.3	3.1	5.3	85	3.0	10	23	247	0.00	1032.716	0	0.020	0
20081222 06:05	5.3	3.1	5.3	84	2.9	10	18	247	0.00	1032.614	0	0.000	0
20081222 06:10	5.3	3.1	5.3	84	2.9	10	23	247	0.00	1032.547	0	0.000	0
20081222 06:15	5.3	3.1	5.3	84	2.9	10	26	247	0.00	1032.479	0	0.000	0
20081222 06:20	5.3	3.1	5.3	84	2.9	10	18	247	0.00	1032.310	0	0.000	0
20081222 06:25	5.3	3.1	5.3	84	2.9	10	19	247	0.00	1032.445	0	0.000	0
20081222 06:30	5.3	3.9	5.3	84	2.8	6	14	247	0.00	1032.411	0	0.000	0
20081222 06:35	5.2	3.4	5.2	84	2.7	8	26	247	0.00	1032.479	0	0.000	0
20081222 06:40	5.3	3.9	5.3	85	3.0	6	14	247	0.00	1032.581	0	0.000	0
20081222 06:45	5.2	3.9	5.2	85	2.9	6	16	270	0.00	1032.581	0	0.000	0
20081222 06:50	5.2	3.9	5.2	85	2.9	6	16	247	0.00	1032.547	0	0.000	0
20081222 06:55	5.2	3.3	5.2	85	2.9	8	16	247	0.00	1032.581	0	0.000	0
20081222 07:00	5.2	3.3	5.2	85	2.9	8	21	247	0.00	1032.648	0	0.020	0
20081222 07:05	5.2	3.3	5.2	85	2.9	8	18	247	0.00	1032.648	0	0.000	0
20081222 07:10	5.2	3.8	5.2	85	2.9	6	16	247	0.00	1032.648	0	0.000	0
20081222 07:15	5.2	3.8	5.2	85	2.9	6	18	247	0.00	1032.581	0	0.000	0
20081222 07:20	5.1	3.3	5.1	86	3.0	8	19	247	0.00	1032.513	0	0.000	0
20081222 07:25	5.1	3.3	5.1	86	3.0	8	19	247	0.00	1032.377	0	0.000	0
20081222 07:30	5.1	3.7	5.1	86	3.0	6	11	247	0.00	1032.547	0	0.000	0
20081222 07:35	5.1	3.7	5.1	86	2.9	6	14	247	0.00	1032.547	0	0.000	0
20081222 07:40	5.1	3.7	5.1	86	2.9	6	16	247	0.00	1032.479	0	0.000	0
20081222 07:45	5.1	3.2	5.1	86	2.9	8	16	247	0.00	1032.513	0	0.000	0
20081222 07:50	5.1	3.7	5.1	87	3.1	6	16	247	0.00	1032.614	0	0.000	0
20081222 07:55	5.0	3.6	5.0	92	3.8	6	14	270	0.00	1032.581	0	0.000	0
20081222 08:00	4.9	3.1	4.9	87	3.0	8	19	247	0.00	1032.614	0	0.020	0
20081222 08:05	4.9	3.5	4.9	87	3.0	6	16	247	0.00	1032.547	0	0.000	0
20081222 08:10	5.0	2.7	5.0	87	3.0	10	18	270	0.00	1032.581	0	0.000	0
20081222 08:15	5.0	2.7	5.0	87	3.0	10	16	270	0.00	1032.547	0	0.000	0
20081222 08:20	4.9	3.5	4.9	87	3.0	6	14	270	0.20	1032.581	0	0.000	0
20081222 08:25	4.9	3.0	4.9	87	2.9	8	19	247	0.00	1032.581	5	0.000	0
20081222 08:30	4.9	3.0	4.9	88	3.1	8	18	270	0.00	1032.614	7	0.000	0
20081222 08:35	4.8	2.6	4.8	87	2.9	10	19	247	0.00	1032.581	6	0.000	0
20081222 08:40	4.9	3.0	4.9	87	2.9	8	18	247	0.00	1032.648	10	0.000	0
20081222 08:45	4.9	2.7	4.9	86	2.8	10	19	247	0.00	1032.648	11	0.000	0
20081222 08:50	5.1	2.8	5.1	86	2.9	10	19	247	0.00	1032.614	16	0.000	0
20081222 08:55	5.1	3.2	5.1	85	2.7	8	21	270	0.00	1032.581	16	0.000	0
20081222 09:00	5.2	2.9	5.2	85	2.9	10	27	247	0.00	1032.581	14	0.020	0
20081222 09:05	5.2	2.6	5.2	85	2.9	11	26	247	0.00	1032.445	16	0.000	0
20081222 09:10	5.2	2.9	5.2	85	2.9	10	19	247	0.00	1032.547	19	0.000	0
20081222 09:15	5.2	2.6	5.2	85	2.9	11	21	247	0.00	1032.581	30	0.000	0
20081222 09:20	5.2	2.9	5.2	85	2.9	10	19	247	0.00	1032.547	44	0.000	0
20081222 09:25	5.2	2.7	5.2	84	2.7	11	34	247	0.00	1032.547	44	0.000	0
20081222 09:30	5.3	3.1	5.3	84	2.8	10	31	247	0.00	1032.547	28	0.000	0
20081222 09:35	5.3	2.8	5.3	84	2.9	11	27	247	0.00	1032.581	15	0.000	0
20081222 09:40	5.3	2.8	5.3	84	2.9	11	23	247	0.00	1032.513	29	0.000	0
20081222 09:45	5.3	2.8	5.3	84	2.9	11	21	247	0.00	1032.479	45	0.000	0
20081222 09:50	5.3	2.5	5.3	83	2.7	13	24	247	0.00	1032.344	71	0.000	0
20081222 09:55	5.4	3.3	5.4	83	2.8	10	19	270	0.00	1032.547	56	0.000	0
20081222 10:00	5.4	2.3	5.4	83	2.7	14	29	270	0.00	1032.648	25	0.020	0
20081222 10:05	5.3	2.5	5.3	85	3.0	13	23	270	0.00	1032.581	23	0.000	0
20081222 10:10	5.1	2.2	5.1	86	3.0	13	21	247	0.00	1032.614	43	0.000	0
20081222 10:15	5.0	1.8	5.0	87	3.0	14	29	270	0.00	1032.242	49	0.000	0
20081222 10:20	4.9	2.3	4.9	88	3.1	11	26	247	0.00	1032.174	53	0.000	0
20081222 10:25	4.9	2.0	4.9	88	3.1	13	27	270	0.00	1032.411	73	0.000	0
20081222 10:30	4.9	1.8	4.9	87	3.0	14	27	270	0.00	1032.411	44	0.000	0
20081222 10:35	4.9	2.3	4.9	87	3.0	11	21	247	0.00	1032.377	36	0.000	0
20081222 10:40	5.1	1.9	5.1	86	2.9	14	27	247	0.00	1032.140	52	0.000	0
20081222 10:45	5.1	2.5	5.1	86	2.9	11	27	247	0.00	1032.106	51	0.000	0
20081222 10:50	5.1	2.5	5.1	87	3.1	11	27	247	0.00	1032.073	55	0.000	0
20081222 10:55	5.0	2.4	5.0	87	3.0	11	19	247	0.00	1032.073	66	0.000	0
20081222 11:00	4.9	2.3	4.9	88	3.1	11	26	247	0.20	1032.005	58	0.020	0
20081222 11:05	4.9	2.3	4.9	88	3.1	11	21	247	0.00	1032.174	59	0.000	0
20081222 11:10	4.9	2.7	4.9	89	3.3	10	19	247	0.00	1032.005	70	0.000	0
20081222 11:15	4.9	2.3	4.9	89	3.3	11	21	247	0.00	1031.971	63	0.000	0
20081222 11:20	4.9	2.7	4.9	89	3.3	10	21	270	0.00	1031.869	57	0.000	0
20081222 11:25	4.9	1.7	4.9	89	3.2	14	27	247	0.00	1031.666	73	0.000	0
20081222 11:30	4.8	2.2	4.8	90	3.3	11	21	247	0.00	1031.632	72	0.000	0
20081222 11:35	4.8	2.1	4.8	90	3.3	11	24	247	0.00	1031.632	66	0.000	0
20081222 11:40	4.8	1.8	4.8	90	3.3	13	23	247	0.00	1031.666	68	0.000	0
20081222 11:45	4.8	1.8	4.8	90	3.3	13	26	247	0.00	1031.463	74	0.000	0
20081222 11:50	4.8	1.8	4.8	90	3.3	13	23	247	0.00	1031.361	78	0.000	0
20081222 11:55	4.8	2.6	4.8	91	3.5	10	21	247	0.00	1031.260	71	0.000	0
20081222 12:00	4.8	1.8	4.8	91	3.4	13	26	247	0.00	1031.124	85	0.040	0
20081222 12:05	4.8	1.8	4.8	91	3.4	13	23	247	0.00	1031.294	72	0.000	0
20081222 12:10	4.8	2.2	4.8	91	3.5	11	21	247	0.00	1031.192	64	0.000	0
20081222 12:15	4.8	2.2	4.8	91	3.5	11	24	247	0.00	1031.260	68	0.000	0
20081222 12:20	4.8	2.2	4.8	91	3.5	11	21	247	0.00	1031.158	70	0.000	0
20081222 12:25	4.8	2.2	4.8	91	3.5	11	23	247	0.00	1031.294	56	0.000	0
20081222 12:30	4.9	2.0	4.9	91	3.5	13	27	247	0.00	1031.260	49	0.000	0
20081222 12:35	4.9	2.7	4.9	90	3.4	10	19	247	0.00	1031.260	48	0.000	0
20081222 12:40	5.0	2.7	5.0	90	3.5	10	19	270	0.00	1031.260	42	0.000	0
20081222 12:45	5.1	2.5	5.1	89	3.4	11	18	247	0.00	1031.124	45	0.000	0
20081222 12:50	5.1	2.5	5.1	89	3.4	11	31	247	0.00	1031.260	49	0.000	0
20081222 12:55	5.2	2.9	5.2	89	3.5	10	18	247	0.00	1031.124	35	0.000	0
20081222 13:00	5.2	2.7	5.2	89	3.6	11	24	247	0.00	1031.023	37	0.020	0
20081222 13:05	5.2	2.4	5.2	88	3.4	13	23	247	0.00	1030.989	45	0.000	0
20081222 13:10	5.3	2.3	5.3	87	3.3	14	27	270	0.00	1030.820	51	0.000	0
20081222 13:15	5.4	2.3	5.4	87	3.4	14	29	247	0.00	1030.887	55	0.000	0
20081222 13:20	5.4	2.4	5.4	87	3.5	14	32	247	0.00	1030.786	63	0.000	0
20081222 13:25	5.4	2.7	5.4	88	3.6	13	24	270	0.00	1030.854	59	0.000	0
20081222 13:30	5.4	2.9	5.4	88	3.6	11	26	247	0.00	1030.854	52	0.000	0
20081222 13:35	5.4	2.6	5.4	88	3.6	13	23	247	0.00	1030.820	49	0.000	0
20081222 13:40	5.3	2.3	5.3	89	3.7	14	27	270	0.00	1030.887	44	0.000	0
20081222 13:45	5.3	2.5	5.3	88	3.5	13	26	247	0.00	1030.955	40	0.000	0
20081222 13:50	5.3	2.5	5.3	88	3.5	13	24	247	0.00	1030.854	37	0.000	0
20081222 13:55	5.3	2.5	5.3	88	3.5	13	24	247	0.00	1030.752	36	0.000	0
20081222 14:00	5.3	2.0	5.3	88	3.5	16	27	247	0.00	1030.786	38	0.020	0
20081222 14:05	5.3	2.8	5.3	89	3.7	11	24	247	0.00	1030.786	32	0.000	0
20081222 14:10	5.3	2.5	5.3	88	3.5	13	26	247	0.00	1030.786	36	0.000	0
20081222 14:15	5.3	2.5	5.3	88	3.5	13	26	247	0.00	1030.583	35	0.000	0
20081222 14:20	5.4	2.1	5.4	88	3.6	16	29	247	0.00	1030.481	39	0.000	0
20081222 14:25	5.4	2.4	5.4	87	3.5	14	24	270	0.00	1030.278	42	0.000	0
20081222 14:30	5.4	2.4	5.4	87	3.5	14	24	247	0.00	1030.379	42	0.000	0
20081222 14:35	5.4	2.7	5.4	88	3.6	13	26	247	0.00	1030.244	34	0.000	0
20081222 14:40	5.4	2.9	5.4	88	3.6	11	19	247	0.00	1030.210	34	0.000	0
20081222 14:45	5.4	2.9	5.4	88	3.6	11	19	247	0.00	1030.142	30	0.000	0
20081222 14:50	5.4	2.7	5.4	87	3.5	13	23	247	0.00	1030.176	29	0.000	0
20081222 14:55	5.5	2.7	5.5	87	3.5	13	23	247	0.00	1030.176	25	0.000	0
20081222 15:00	5.5	2.5	5.5	86	3.3	14	27	247	0.00	1030.210	28	0.020	0
20081222 15:05	5.5	2.7	5.5	87	3.5	13	24	247	0.00	1030.244	26	0.000	0
20081222 15:10	5.5	3.3	5.5	87	3.5	10	24	247	0.00	1030.312	22	0.000	0
20081222 15:15	5.4	2.9	5.4	87	3.5	11	23	247	0.00	1030.312	21	0.000	0
20081222 15:20	5.4	2.7	5.4	87	3.5	13	27	270	0.00	1030.583	19	0.000	0
20081222 15:25	5.4	2.9	5.4	88	3.6	11	23	247	0.00	1030.718	18	0.000	0
20081222 15:30	5.4	2.7	5.4	87	3.5	13	27	247	0.00	1030.616	18	0.000	0
20081222 15:35	5.4	2.7	5.4	87	3.5	13	27	247	0.00	1030.549	16	0.000	0
20081222 15:40	5.5	2.7	5.5	87	3.5	13	24	247	0.00	1030.650	11	0.000	0
20081222 15:45	5.5	2.7	5.5	86	3.3	13	21	270	0.00	1030.684	8	0.000	0
20081222 15:50	5.5	3.0	5.5	86	3.3	11	27	247	0.00	1030.583	9	0.000	0
20081222 15:55	5.5	3.3	5.5	86	3.3	10	24	270	0.00	1030.684	8	0.000	0
20081222 16:00	5.6	3.1	5.6	86	3.4	11	24	247	0.00	1030.718	6	0.020	0
20081222 16:05	5.6	2.8	5.6	86	3.4	13	24	270	0.00	1030.786	3	0.000	0
20081222 16:10	5.6	3.1	5.6	86	3.4	11	21	247	0.00	1030.854	0	0.000	0
20081222 16:15	5.6	3.1	5.6	86	3.4	11	23	247	0.00	1030.786	0	0.000	0
20081222 16:20	5.6	3.1	5.6	86	3.4	11	19	247	0.00	1030.887	0	0.000	0
20081222 16:25	5.6	3.1	5.6	86	3.4	11	21	247	0.00	1030.684	0	0.000	0
20081222 16:30	5.6	3.4	5.6	86	3.4	10	18	247	0.00	1030.684	0	0.000	0
20081222 16:35	5.6	3.5	5.6	85	3.3	10	18	270	0.00	1030.752	0	0.000	0
20081222 16:40	5.7	3.2	5.7	85	3.3	11	24	270	0.00	1030.752	0	0.000	0
20081222 16:45	5.7	3.9	5.7	85	3.3	8	16	247	0.00	1030.955	0	0.000	0
20081222 16:50	5.7	3.2	5.7	86	3.5	11	21	247	0.00	1030.752	0	0.000	0
20081222 16:55	5.6	2.9	5.6	85	3.3	13	23	247	0.00	1030.820	0	0.000	0
20081222 17:00	5.7	3.2	5.7	85	3.3	11	24	247	0.00	1031.023	0	0.020	0
20081222 17:05	5.7	2.9	5.7	85	3.3	13	27	270	0.00	1031.158	0	0.000	0
20081222 17:10	5.7	3.6	5.7	85	3.4	10	24	247	0.00	1031.226	0	0.000	0
20081222 17:15	5.7	3.3	5.7	85	3.4	11	19	247	0.00	1031.226	0	0.000	0
20081222 17:20	5.8	3.4	5.8	84	3.3	11	23	247	0.00	1031.226	0	0.000	0
20081222 17:25	5.8	3.4	5.8	84	3.3	11	21	247	0.00	1031.328	0	0.000	0
20081222 17:30	5.8	3.7	5.8	85	3.5	10	19	247	0.00	1031.531	0	0.000	0
20081222 17:35	5.8	3.7	5.8	85	3.5	10	16	247	0.00	1031.565	0	0.000	0
20081222 17:40	5.8	3.7	5.8	85	3.5	10	24	270	0.00	1031.429	0	0.000	0
20081222 17:45	5.8	3.1	5.8	84	3.3	13	23	247	0.00	1031.632	0	0.000	0
20081222 17:50	5.8	3.1	5.8	85	3.5	13	24	247	0.00	1031.700	0	0.000	0
20081222 17:55	5.8	3.1	5.8	85	3.5	13	24	270	0.00	1031.768	0	0.000	0
20081222 18:00	5.8	3.1	5.8	85	3.5	13	24	270	0.00	1031.734	0	0.020	0
20081222 18:05	5.8	3.1	5.8	86	3.6	13	21	247	0.00	1031.531	0	0.000	0
20081222 18:10	5.7	3.2	5.7	86	3.5	11	23	247	0.00	1031.666	0	0.000	0
20081222 18:15	5.6	2.9	5.6	87	3.6	13	24	247	0.00	1031.835	0	0.000	0
20081222 18:20	5.6	3.1	5.6	87	3.6	11	26	270	0.00	1031.734	0	0.000	0
20081222 18:25	5.6	3.1	5.6	87	3.6	11	29	247	0.00	1031.903	0	0.000	0
20081222 18:30	5.6	3.1	5.6	87	3.6	11	26	247	0.00	1031.869	0	0.000	0
20081222 18:35	5.5	2.7	5.5	87	3.5	13	21	247	0.00	1031.903	0	0.000	0
20081222 18:40	5.5	3.0	5.5	87	3.5	11	24	247	0.00	1031.937	0	0.000	0
20081222 18:45	5.5	3.3	5.5	87	3.5	10	21	247	0.00	1031.869	0	0.000	0
20081222 18:50	5.5	3.3	5.5	87	3.5	10	18	247	0.00	1032.073	0	0.000	0
20081222 18:55	5.6	2.8	5.6	87	3.6	13	23	247	0.00	1031.937	0	0.000	0
20081222 19:00	5.5	3.0	5.5	86	3.3	11	24	270	0.00	1031.937	0	0.020	0
20081222 19:05	5.4	3.7	5.4	86	3.3	8	26	247	0.00	1031.903	0	0.000	0
20081222 19:10	5.3	3.1	5.3	87	3.3	10	16	247	0.00	1031.903	0	0.000	0
20081222 19:15	5.3	3.5	5.3	87	3.3	8	18	247	0.00	1031.971	0	0.000	0
20081222 19:20	5.2	3.0	5.2	87	3.2	10	21	247	0.00	1032.039	0	0.000	0
20081222 19:25	5.3	3.1	5.3	87	3.3	10	21	247	0.00	1032.005	0	0.000	0
20081222 19:30	5.3	3.5	5.3	87	3.3	8	19	247	0.00	1032.140	0	0.000	0
20081222 19:35	5.3	3.5	5.3	87	3.3	8	14	247	0.00	1032.073	0	0.000	0
20081222 19:40	5.3	2.7	5.3	87	3.3	11	24	247	0.00	1032.106	0	0.000	0
20081222 19:45	5.3	3.1	5.3	87	3.3	10	18	270	0.00	1032.073	0	0.000	0
20081222 19:50	5.3	3.5	5.3	87	3.3	8	16	247	0.00	1032.039	0	0.000	0
20081222 19:55	5.3	3.5	5.3	87	3.3	8	21	247	0.00	1032.174	0	0.000	0
20081222 20:00	5.3	3.1	5.3	87	3.3	10	18	247	0.00	1032.106	0	0.020	0
20081222 20:05	5.3	3.5	5.3	87	3.3	8	16	247	0.00	1032.005	0	0.000	0
20081222 20:10	5.3	2.8	5.3	87	3.3	11	21	247	0.00	1032.005	0	0.000	0
20081222 20:15	5.3	3.1	5.3	87	3.3	10	21	247	0.00	1032.005	0	0.000	0
20081222 20:20	5.3	2.8	5.3	87	3.3	11	23	247	0.00	1032.106	0	0.000	0
20081222 20:25	5.3	2.8	5.3	87	3.3	11	23	247	0.00	1032.073	0	0.000	0
20081222 20:30	5.3	3.1	5.3	87	3.3	10	21	247	0.00	1032.140	0	0.000	0
20081222 20:35	5.4	3.2	5.4	87	3.4	10	18	247	0.00	1032.310	0	0.000	0
20081222 20:40	5.4	2.9	5.4	87	3.5	11	21	247	0.00	1032.208	0	0.000	0
20081222 20:45	5.4	2.9	5.4	87	3.5	11	21	247	0.00	1032.276	0	0.000	0
20081222 20:50	5.4	3.3	5.4	87	3.5	10	19	247	0.00	1032.445	0	0.000	0
20081222 20:55	5.4	3.7	5.4	88	3.6	8	16	247	0.00	1032.344	0	0.000	0
20081222 21:00	5.4	3.6	5.4	92	4.2	8	19	270	0.00	1032.479	0	0.020	0
20081222 21:05	5.4	3.7	5.4	88	3.6	8	18	225	0.00	1032.479	0	0.000	0
20081222 21:10	5.4	3.7	5.4	88	3.6	8	16	247	0.00	1032.479	0	0.000	0
20081222 21:15	5.4	3.3	5.4	88	3.6	10	19	247	0.00	1032.513	0	0.000	0
20081222 21:20	5.4	3.2	5.4	88	3.6	10	21	247	0.00	1032.445	0	0.000	0
20081222 21:25	5.4	3.2	5.4	88	3.6	10	23	247	0.00	1032.513	0	0.000	0
20081222 21:30	5.3	3.1	5.3	88	3.5	10	16	247	0.00	1032.513	0	0.000	0
20081222 21:35	5.3	2.8	5.3	88	3.5	11	23	247	0.00	1032.513	0	0.000	0
20081222 21:40	5.3	3.1	5.3	88	3.5	10	18	247	0.00	1032.547	0	0.000	0
20081222 21:45	5.3	2.8	5.3	88	3.5	11	21	247	0.00	1032.581	0	0.000	0
20081222 21:50	5.3	3.1	5.3	89	3.7	10	19	247	0.00	1032.614	0	0.000	0
20081222 21:55	5.3	3.5	5.3	89	3.7	8	16	247	0.00	1032.750	0	0.000	0
20081222 22:00	5.3	3.5	5.3	89	3.7	8	18	247	0.00	1032.614	0	0.020	0
20081222 22:05	5.3	3.5	5.3	89	3.7	8	16	247	0.00	1032.716	0	0.000	0
20081222 22:10	5.3	3.5	5.3	89	3.7	8	21	247	0.00	1032.784	0	0.000	0
20081222 22:15	5.3	3.5	5.3	89	3.7	8	18	247	0.00	1032.851	0	0.000	0
20081222 22:20	5.3	3.5	5.3	89	3.7	8	16	247	0.00	1032.818	0	0.000	0
20081222 22:25	5.3	3.5	5.3	88	3.5	8	16	247	0.00	1032.851	0	0.000	0
20081222 22:30	5.4	3.6	5.4	88	3.6	8	14	247	0.00	1032.784	0	0.000	0
20081222 22:35	5.4	3.6	5.4	88	3.6	8	18	247	0.00	1032.885	0	0.000	0
20081222 22:40	5.4	3.3	5.4	88	3.6	10	18	247	0.00	1032.953	0	0.000	0
20081222 22:45	5.4	2.9	5.4	87	3.5	11	21	270	0.00	1032.987	0	0.000	0
20081222 22:50	5.5	3.0	5.5	87	3.5	11	23	270	0.00	1033.021	0	0.000	0
20081222 22:55	5.5	3.7	5.5	87	3.5	8	18	270	0.00	1033.055	0	0.000	0
20081222 23:00	5.5	3.7	5.5	87	3.5	8	16	270	0.00	1033.156	0	0.020	0
20081222 23:05	5.4	4.1	5.4	87	3.5	6	11	247	0.00	1032.987	0	0.000	0
20081222 23:10	5.4	3.3	5.4	87	3.5	10	16	270	0.00	1033.089	0	0.000	0
20081222 23:15	5.4	3.7	5.4	87	3.5	8	14	270	0.00	1033.156	0	0.000	0
20081222 23:20	5.4	3.7	5.4	87	3.5	8	21	247	0.00	1033.122	0	0.000	0
20081222 23:25	5.4	3.7	5.4	87	3.5	8	18	270	0.00	1033.089	0	0.000	0
20081222 23:30	5.4	3.7	5.4	87	3.5	8	16	247	0.00	1033.021	0	0.000	0
20081222 23:35	5.4	4.0	5.4	87	3.4	6	16	247	0.00	1033.089	0	0.000	0
20081222 23:40	5.3	4.0	5.3	87	3.3	6	18	247	0.00	1033.089	0	0.000	0
20081222 23:45	5.3	3.9	5.3	87	3.3	6	13	247	0.00	1033.055	0	0.000	0
20081222 23:50	5.2	3.8	5.2	88	3.3	6	11	247	0.00	1033.021	0	0.000	0
20081222 23:55	5.1	3.7	5.1	88	3.3	6	13	247	0.00	1033.089	0	0.000	0
20081222 24:00	5.1	5.1	5.1	88	3.2	5	10	247	0.00	1033.021	0	0.020	0



Please note the license to use and transfer of this data:
http://creativecommons.org/licenses/by-nc-sa/3.0/deed.en

Bitte beachten sie die Lizenz zur Verwertung und Weitergabe der Daten:
http://creativecommons.org/licenses/by-nc-sa/3.0/deed.de

zurück zur Übersicht der Archivdaten (Monats und Tagesdaten)

Cookies helfen bei der Bereitstellung von Inhalten. Durch die Nutzung dieser Seiten erklärst du dich damit einverstanden, dass Cookies auf deinem Rechner gespeichert werden. Weitere Information